createdAt,value
2019-04-04T00:00:16.264Z,101624.49
2019-04-04T00:01:56.251Z,101624.39
2019-04-04T00:03:37.583Z,101627.75
2019-04-04T00:05:19.630Z,101620.11
2019-04-04T00:07:02.691Z,101622.17
2019-04-04T00:08:46.908Z,101612.55
2019-04-04T00:10:29.778Z,101611.23
2019-04-04T00:12:13.268Z,101617.46
2019-04-04T00:13:58.809Z,101616.14
2019-04-04T00:15:39.040Z,101618.78
2019-04-04T00:17:22.877Z,101621.83
2019-04-04T00:19:03.131Z,101618.21
2019-04-04T00:20:44.544Z,101613.07
2019-04-04T00:22:26.359Z,101616.08
2019-04-04T00:24:09.132Z,101616.42
2019-04-04T00:25:53.419Z,101612.39
2019-04-04T00:27:35.452Z,101619.84
2019-04-04T00:29:17.872Z,101619.91
2019-04-04T00:31:01.545Z,101617.07
2019-04-04T00:32:42.150Z,101616.52
2019-04-04T00:34:24.115Z,101624.89
2019-04-04T00:36:06.416Z,101613.41
2019-04-04T00:37:49.158Z,101621.40
2019-04-04T00:39:29.523Z,101618.42
2019-04-04T00:41:13.006Z,101617.07
2019-04-04T00:42:56.659Z,101619.53
2019-04-04T00:44:36.487Z,101618.12
2019-04-04T00:46:18.986Z,101616.05
2019-04-04T00:47:59.220Z,101615.68
2019-04-04T00:49:41.326Z,101609.89
2019-04-04T00:51:22.415Z,101611.48
2019-04-04T00:53:03.956Z,101612.84
2019-04-04T00:55:00.568Z,101614.80
2019-04-04T00:56:38.895Z,101607.72
2019-04-04T00:58:18.945Z,101610.36
2019-04-04T00:59:59.010Z,101610.80
2019-04-04T01:01:39.712Z,101615.74
2019-04-04T01:03:19.985Z,101611.28
2019-04-04T01:05:01.336Z,101607.31
2019-04-04T01:06:37.929Z,101603.29
2019-04-04T01:08:18.053Z,101608.16
2019-04-04T01:09:57.928Z,101603.29
2019-04-04T01:11:39.339Z,101607.14
2019-04-04T01:13:21.213Z,101609.41
2019-04-04T01:15:00.738Z,101601.12
2019-04-04T01:16:41.469Z,101605.83
2019-04-04T01:18:21.070Z,101596.96
2019-04-04T01:20:02.938Z,101606.27
2019-04-04T01:21:45.892Z,101605.42
2019-04-04T01:23:28.455Z,101607.59
2019-04-04T01:25:10.696Z,101604.38
2019-04-04T01:26:55.634Z,101602.20
2019-04-04T01:28:34.591Z,101603.89
2019-04-04T01:30:15.564Z,101599.36
2019-04-04T01:31:56.210Z,101601.86
2019-04-04T01:33:37.471Z,101605.11
2019-04-04T01:35:17.873Z,101600.71
2019-04-04T01:36:57.381Z,101598.45
2019-04-04T01:38:37.792Z,101599.28
2019-04-04T01:40:18.385Z,101593.53
2019-04-04T01:41:58.213Z,101594.92
2019-04-04T01:43:39.877Z,101599.28
2019-04-04T01:45:20.709Z,101596.65
2019-04-04T01:47:07.162Z,101590.72
2019-04-04T01:48:52.233Z,101592.98
2019-04-04T01:50:32.380Z,101592.11
2019-04-04T01:52:14.353Z,101582.77
2019-04-04T01:53:54.586Z,101583.52
2019-04-04T01:55:35.746Z,101584.28
2019-04-04T01:57:16.052Z,101582.67
2019-04-04T01:58:55.239Z,101586.92
2019-04-04T02:00:35.235Z,101587.50
2019-04-04T02:02:17.747Z,101586.52
2019-04-04T02:03:57.009Z,101587.00
2019-04-04T02:05:38.155Z,101586.82
2019-04-04T02:07:18.481Z,101591.04
2019-04-04T02:09:06.144Z,101589.11
2019-04-04T02:13:34.646Z,101590.53
2019-04-04T02:15:15.169Z,101590.90
2019-04-04T02:16:55.495Z,101598.34
2019-04-04T02:18:37.974Z,101595.59
2019-04-04T02:20:16.636Z,101602.92
2019-04-04T02:22:00.396Z,101600.87
2019-04-04T02:23:40.057Z,101603.33
2019-04-04T02:25:20.833Z,101599.91
2019-04-04T02:26:59.299Z,101605.66
2019-04-04T02:28:39.990Z,101603.50
2019-04-04T02:30:19.412Z,101600.80
2019-04-04T02:31:59.850Z,101598.05
2019-04-04T02:33:39.376Z,101602.73
2019-04-04T02:35:16.503Z,101604.16
2019-04-04T02:36:55.707Z,101600.69
2019-04-04T02:38:36.633Z,101603.69
2019-04-04T02:40:14.616Z,101601.38
2019-04-04T02:41:53.942Z,101601.86
2019-04-04T02:43:33.141Z,101605.34
2019-04-04T02:45:12.474Z,101605.34
2019-04-04T02:46:49.908Z,101608.34
2019-04-04T02:48:28.982Z,101608.20
2019-04-04T02:50:08.698Z,101608.45
2019-04-04T02:51:48.254Z,101614.50
2019-04-04T02:53:27.489Z,101610.91
2019-04-04T02:55:06.581Z,101612.52
2019-04-04T02:56:45.202Z,101607.94
2019-04-04T02:58:22.800Z,101616.25
2019-04-04T03:00:00.596Z,101619.95
2019-04-04T03:01:42.655Z,101617.43
2019-04-04T03:03:23.055Z,101619.44
2019-04-04T03:05:02.377Z,101623.80
2019-04-04T03:06:41.507Z,101621.02
2019-04-04T03:08:20.512Z,101622.51
2019-04-04T03:09:59.458Z,101625.95
2019-04-04T03:11:38.436Z,101629.58
2019-04-04T03:13:17.288Z,101628.26
2019-04-04T03:14:56.490Z,101627.02
2019-04-04T03:16:35.390Z,101628.73
2019-04-04T03:18:15.784Z,101627.78
2019-04-04T03:19:55.028Z,101634.33
2019-04-04T03:21:34.654Z,101632.09
2019-04-04T03:23:13.350Z,101633.86
2019-04-04T03:24:52.390Z,101633.86
2019-04-04T03:26:31.389Z,101639.53
2019-04-04T03:28:10.541Z,101636.05
2019-04-04T03:29:49.680Z,101635.69
2019-04-04T03:31:36.371Z,101636.49
2019-04-04T03:33:10.323Z,101646.23
2019-04-04T03:34:51.103Z,101641.08
2019-04-04T03:36:34.020Z,101642.39
2019-04-04T03:38:13.447Z,101640.34
2019-04-04T03:39:53.330Z,101643.28
2019-04-04T03:41:35.849Z,101639.48
2019-04-04T03:43:15.918Z,101639.98
2019-04-04T03:44:54.633Z,101643.69
2019-04-04T03:46:37.702Z,101643.91
2019-04-04T03:48:17.039Z,101646.58
2019-04-04T03:49:57.650Z,101649.41
2019-04-04T03:51:38.269Z,101649.98
2019-04-04T03:53:21.109Z,101645.77
2019-04-04T03:55:00.517Z,101643.87
2019-04-04T03:56:40.832Z,101645.06
2019-04-04T03:58:21.405Z,101641.93
2019-04-04T04:00:05.601Z,101640.55
2019-04-04T04:01:45.380Z,101647.84
2019-04-04T04:03:22.713Z,101638.33
2019-04-04T04:05:02.322Z,101643.58
2019-04-04T04:06:48.134Z,101638.79
2019-04-04T04:08:27.026Z,101635.59
2019-04-04T04:10:08.579Z,101633.06
2019-04-04T04:11:48.087Z,101632.59
2019-04-04T04:13:27.295Z,101639.20
2019-04-04T04:15:06.977Z,101633.80
2019-04-04T04:16:46.444Z,101628.44
2019-04-04T04:18:26.077Z,101633.52
2019-04-04T04:20:06.204Z,101629.46
2019-04-04T04:21:45.075Z,101634.69
2019-04-04T04:23:24.362Z,101634.18
2019-04-04T04:25:03.752Z,101637.08
2019-04-04T04:26:42.982Z,101628.06
2019-04-04T04:28:24.341Z,101633.33
2019-04-04T04:30:06.107Z,101631.80
2019-04-04T04:31:48.291Z,101628.58
2019-04-04T04:33:28.942Z,101633.33
2019-04-04T04:35:07.610Z,101632.75
2019-04-04T04:36:42.959Z,101632.53
2019-04-04T04:38:25.394Z,101636.41
2019-04-04T04:40:03.437Z,101628.67
2019-04-04T04:41:41.057Z,101635.17
2019-04-04T04:43:18.477Z,101637.28
2019-04-04T04:44:55.443Z,101630.45
2019-04-04T04:46:33.235Z,101632.56
2019-04-04T04:48:10.971Z,101624.86
2019-04-04T04:49:50.506Z,101624.71
2019-04-04T04:51:29.612Z,101623.16
2019-04-04T04:53:11.356Z,101627.89
2019-04-04T04:54:58.023Z,101626.91
2019-04-04T04:56:37.562Z,101624.22
2019-04-04T04:58:15.848Z,101613.38
2019-04-04T04:59:53.060Z,101626.52
2019-04-04T05:01:31.193Z,101624.15
2019-04-04T05:03:09.982Z,101623.92
2019-04-04T05:04:46.850Z,101623.69
2019-04-04T05:06:26.131Z,101624.81
2019-04-04T05:08:03.591Z,101626.77
2019-04-04T05:09:40.947Z,101622.56
2019-04-04T05:11:18.998Z,101623.63
2019-04-04T05:13:00.040Z,101620.69
2019-04-04T05:14:37.615Z,101618.23
2019-04-04T05:16:15.183Z,101624.14
2019-04-04T05:17:52.694Z,101622.54
2019-04-04T05:19:31.780Z,101620.33
2019-04-04T05:21:10.726Z,101627.12
2019-04-04T05:22:48.491Z,101622.77
2019-04-04T05:24:25.966Z,101623.79
2019-04-04T05:26:03.399Z,101623.41
2019-04-04T05:27:42.356Z,101623.97
2019-04-04T05:29:19.605Z,101623.64
2019-04-04T05:30:56.591Z,101626.77
2019-04-04T05:32:37.277Z,101620.17
2019-04-04T05:34:15.321Z,101625.16
2019-04-04T05:35:52.403Z,101628.75
2019-04-04T05:37:29.774Z,101628.79
2019-04-04T05:39:10.982Z,101619.00
2019-04-04T05:40:48.437Z,101622.19
2019-04-04T05:42:25.904Z,101620.00
2019-04-04T05:44:03.283Z,101622.80
2019-04-04T05:45:40.488Z,101616.61
2019-04-04T05:47:17.935Z,101627.28
2019-04-04T05:49:00.701Z,101626.42
2019-04-04T05:50:38.253Z,101623.82
2019-04-04T05:52:15.320Z,101620.69
2019-04-04T05:53:52.457Z,101619.44
2019-04-04T05:55:30.139Z,101622.08
2019-04-04T05:57:08.532Z,101621.59
2019-04-04T05:58:45.774Z,101620.34
2019-04-04T06:00:26.980Z,101623.02
2019-04-04T06:02:02.552Z,101619.01
2019-04-04T06:03:40.643Z,101622.13
2019-04-04T06:05:17.778Z,101623.50
2019-04-04T06:06:55.758Z,101621.24
2019-04-04T06:08:33.761Z,101615.46
2019-04-04T06:10:12.335Z,101614.09
2019-04-04T06:11:53.166Z,101614.53
2019-04-04T06:13:31.261Z,101624.80
2019-04-04T06:15:10.782Z,101621.63
2019-04-04T06:16:58.959Z,101623.85
2019-04-04T06:18:36.344Z,101622.43
2019-04-04T06:20:14.997Z,101625.10
2019-04-04T06:21:52.110Z,101625.09
2019-04-04T06:23:30.011Z,101627.34
2019-04-04T06:25:10.032Z,101625.52
2019-04-04T06:26:48.357Z,101620.14
2019-04-04T06:28:25.404Z,101619.92
2019-04-04T06:30:02.427Z,101624.39
2019-04-04T06:31:39.587Z,101615.41
2019-04-04T06:33:19.217Z,101618.97
2019-04-04T06:34:59.200Z,101619.80
2019-04-04T06:36:36.269Z,101620.60
2019-04-04T06:38:14.270Z,101612.43
2019-04-04T06:39:54.501Z,101610.42
2019-04-04T06:41:32.841Z,101617.47
2019-04-04T06:43:14.054Z,101612.78
2019-04-04T06:44:54.084Z,101620.06
2019-04-04T06:46:31.236Z,101610.66
2019-04-04T06:48:08.321Z,101611.36
2019-04-04T06:49:45.910Z,101608.75
2019-04-04T06:51:25.044Z,101609.51
2019-04-04T06:53:04.215Z,101603.02
2019-04-04T06:54:41.231Z,101599.72
2019-04-04T06:56:19.212Z,101604.71
2019-04-04T06:57:56.761Z,101607.80
2019-04-04T06:59:34.838Z,101606.75
2019-04-04T07:01:12.178Z,101601.89
2019-04-04T07:02:49.316Z,101606.22
2019-04-04T07:04:31.874Z,101603.78
2019-04-04T07:06:10.891Z,101598.75
2019-04-04T07:07:48.470Z,101602.53
2019-04-04T07:09:26.907Z,101603.06
2019-04-04T07:11:06.898Z,101607.38
2019-04-04T07:12:43.286Z,101609.16
2019-04-04T07:14:20.897Z,101601.97
2019-04-04T07:16:06.991Z,101607.14
2019-04-04T07:17:41.276Z,101608.13
2019-04-04T07:19:20.994Z,101604.00
2019-04-04T07:20:57.865Z,101608.30
2019-04-04T07:22:39.819Z,101603.64
2019-04-04T07:24:18.958Z,101601.05
2019-04-04T07:25:57.787Z,101595.87
2019-04-04T07:27:36.526Z,101596.53
2019-04-04T07:29:14.769Z,101598.95
2019-04-04T07:31:01.594Z,101599.02
2019-04-04T07:32:50.099Z,101595.05
2019-04-04T07:34:28.137Z,101595.25
2019-04-04T07:36:06.413Z,101597.53
2019-04-04T07:38:04.665Z,101587.83
2019-04-04T07:39:43.382Z,101589.77
2019-04-04T07:41:25.023Z,101589.20
2019-04-04T07:43:03.065Z,101591.34
2019-04-04T07:44:40.469Z,101589.90
2019-04-04T07:46:18.165Z,101582.13
2019-04-04T07:47:55.700Z,101580.14
2019-04-04T07:49:33.771Z,101579.09
2019-04-04T07:51:12.786Z,101575.83
2019-04-04T07:52:51.376Z,101576.80
2019-04-04T07:54:31.957Z,101571.30
2019-04-04T07:56:09.938Z,101570.50
2019-04-04T07:57:50.846Z,101563.78
2019-04-04T07:59:31.200Z,101570.56
2019-04-04T08:01:09.359Z,101565.81
2019-04-04T08:02:47.306Z,101559.05
2019-04-04T08:04:25.802Z,101558.69
2019-04-04T08:06:03.845Z,101546.06
2019-04-04T08:07:45.607Z,101551.14
2019-04-04T08:09:22.832Z,101550.18
2019-04-04T08:11:02.898Z,101548.78
2019-04-04T08:12:40.626Z,101555.14
2019-04-04T08:14:18.436Z,101538.06
2019-04-04T08:15:56.166Z,101545.67
2019-04-04T08:17:33.943Z,101535.72
2019-04-04T08:19:12.456Z,101529.80
2019-04-04T08:20:50.789Z,101539.26
2019-04-04T08:22:29.642Z,101542.81
2019-04-04T08:24:09.927Z,101534.77
2019-04-04T08:25:49.341Z,101534.00
2019-04-04T08:27:28.710Z,101520.69
2019-04-04T08:29:07.100Z,101523.55
2019-04-04T08:30:48.391Z,101515.44
2019-04-04T08:32:25.390Z,101516.23
2019-04-04T08:34:03.128Z,101511.59
2019-04-04T08:35:42.385Z,101521.67
2019-04-04T08:37:20.028Z,101523.08
2019-04-04T08:38:58.502Z,101516.14
2019-04-04T08:40:36.728Z,101513.35
2019-04-04T08:42:13.762Z,101503.47
2019-04-04T08:43:53.432Z,101518.89
2019-04-04T08:45:30.382Z,101513.64
2019-04-04T08:47:09.519Z,101509.96
2019-04-04T08:48:47.404Z,101502.23
2019-04-04T08:50:27.804Z,101509.62
2019-04-04T08:52:27.636Z,101505.58
2019-04-04T08:54:05.134Z,101501.37
2019-04-04T08:55:46.619Z,101502.19
2019-04-04T08:57:23.508Z,101500.53
2019-04-04T08:59:02.190Z,101502.21
2019-04-04T09:00:42.512Z,101495.41
2019-04-04T09:02:22.834Z,101500.59
2019-04-04T09:04:00.637Z,101496.89
2019-04-04T09:05:39.886Z,101495.53
2019-04-04T09:07:17.564Z,101492.40
2019-04-04T09:08:55.388Z,101490.20
2019-04-04T09:10:33.784Z,101490.98
2019-04-04T09:12:12.794Z,101482.45
2019-04-04T09:13:53.867Z,101492.16
2019-04-04T09:15:32.180Z,101488.56
2019-04-04T09:17:11.375Z,101494.44
2019-04-04T09:18:48.386Z,101492.34
2019-04-04T09:20:28.006Z,101495.66
2019-04-04T09:22:10.811Z,101487.97
2019-04-04T09:23:47.238Z,101482.67
2019-04-04T09:25:24.370Z,101492.39
2019-04-04T09:27:06.205Z,101489.00
2019-04-04T09:28:50.008Z,101480.91
2019-04-04T09:30:29.731Z,101476.08
2019-04-04T09:32:12.053Z,101473.61
2019-04-04T09:33:51.727Z,101475.23
2019-04-04T09:35:32.209Z,101466.88
2019-04-04T09:37:11.163Z,101459.91
2019-04-04T09:38:50.261Z,101471.72
2019-04-04T09:40:29.410Z,101466.80
2019-04-04T09:42:10.362Z,101459.50
2019-04-04T09:43:50.999Z,101464.45
2019-04-04T09:45:30.758Z,101463.22
2019-04-04T09:47:09.956Z,101471.27
2019-04-04T09:48:50.283Z,101469.63
2019-04-04T09:50:30.383Z,101464.69
2019-04-04T09:52:10.738Z,101468.09
2019-04-04T09:53:53.199Z,101466.73
2019-04-04T09:55:30.614Z,101473.08
2019-04-04T09:57:15.629Z,101462.66
2019-04-04T09:58:55.242Z,101461.66
2019-04-04T10:00:36.532Z,101462.49
2019-04-04T10:02:18.317Z,101460.29
2019-04-04T10:04:01.079Z,101452.84
2019-04-04T10:05:51.396Z,101461.97
2019-04-04T10:07:35.718Z,101462.47
2019-04-04T10:09:16.971Z,101459.45
2019-04-04T10:11:19.088Z,101465.91
2019-04-04T10:12:58.574Z,101462.06
2019-04-04T10:14:37.717Z,101464.53
2019-04-04T10:16:14.910Z,101453.57
2019-04-04T10:17:55.656Z,101454.17
2019-04-04T10:19:34.948Z,101446.38
2019-04-04T10:21:14.965Z,101442.85
2019-04-04T10:22:54.700Z,101448.12
2019-04-04T10:24:35.743Z,101451.59
2019-04-04T10:26:13.114Z,101448.73
2019-04-04T10:27:52.148Z,101446.15
2019-04-04T10:29:29.521Z,101447.03
2019-04-04T10:31:08.781Z,101436.61
2019-04-04T10:32:51.718Z,101435.59
2019-04-04T10:34:29.083Z,101440.56
2019-04-04T10:36:31.565Z,101444.27
2019-04-04T10:38:08.739Z,101449.08
2019-04-04T10:39:46.525Z,101668.17
2019-04-04T10:41:57.558Z,101458.63
2019-04-04T10:43:36.284Z,101459.34
2019-04-04T10:52:29.134Z,101432.83
2019-04-04T10:54:42.411Z,101435.16
2019-04-04T10:56:21.537Z,101432.95
2019-04-04T10:58:00.470Z,101437.97
2019-04-04T10:59:39.319Z,101426.31
2019-04-04T11:01:21.949Z,101429.42
2019-04-04T11:03:02.792Z,101423.99
2019-04-04T11:04:42.830Z,101413.30
2019-04-04T11:06:21.291Z,101410.86
2019-04-04T11:07:59.111Z,101405.40
2019-04-04T15:59:54.395Z,101332.69
2019-04-04T16:01:34.878Z,101332.55
2019-04-04T16:03:12.251Z,101339.11
2019-04-04T16:04:51.194Z,101336.09
2019-04-04T16:06:32.384Z,101337.10
2019-04-04T16:08:09.426Z,101341.16
2019-04-04T16:09:46.738Z,101337.64
2019-04-04T16:11:23.787Z,101340.20
2019-04-04T16:13:03.103Z,101341.87
2019-04-04T16:14:40.055Z,101344.02
2019-04-04T16:16:17.821Z,101347.42
2019-04-04T16:17:55.004Z,101350.09
2019-04-04T16:19:32.887Z,101353.94
2019-04-04T16:21:14.081Z,101349.30
2019-04-04T16:22:51.359Z,101353.17
2019-04-04T16:26:30.448Z,101356.14
2019-04-04T16:28:07.987Z,101357.41
2019-04-04T16:29:44.931Z,101362.14
2019-04-04T16:31:22.565Z,101360.62
2019-04-04T16:33:01.728Z,101369.44
2019-04-04T16:34:39.602Z,101370.20
2019-04-04T16:36:23.208Z,101370.48
2019-04-04T16:38:01.998Z,101370.50
2019-04-04T16:39:40.871Z,101363.11
2019-04-04T16:41:20.099Z,101367.29
2019-04-04T16:42:58.938Z,101380.45
2019-04-04T16:44:37.890Z,101378.36
2019-04-04T16:46:18.631Z,101378.12
2019-04-04T16:47:56.117Z,101385.44
2019-04-04T16:49:33.342Z,101386.44
2019-04-04T16:51:12.872Z,101395.95
2019-04-04T16:52:51.006Z,101397.81
2019-04-04T16:54:32.143Z,101401.03
2019-04-04T16:56:15.940Z,101396.64
2019-04-04T16:57:54.623Z,101398.97
2019-04-04T16:59:36.245Z,101403.03
2019-04-04T17:01:13.318Z,101401.72
2019-04-04T17:02:51.647Z,101409.36
2019-04-04T17:04:31.910Z,101408.50
2019-04-04T17:06:13.796Z,101412.53
2019-04-04T17:07:53.674Z,101416.10
2019-04-04T17:09:34.501Z,101416.07
2019-04-04T17:11:18.466Z,101415.22
2019-04-04T17:12:57.467Z,101418.34
2019-04-04T17:14:38.487Z,101415.20
2019-04-04T17:16:21.335Z,101419.66
2019-04-04T17:17:58.821Z,101421.88
2019-04-04T17:19:37.298Z,101431.20
2019-04-04T17:21:16.925Z,101427.63
2019-04-04T17:22:57.318Z,101426.69
2019-04-04T17:24:35.053Z,101432.46
2019-04-04T17:26:14.708Z,101435.97
2019-04-04T17:27:55.728Z,101435.52
2019-04-04T17:29:32.609Z,101429.24
2019-04-04T17:31:11.532Z,101438.55
2019-04-04T17:32:50.333Z,101438.05
2019-04-04T17:34:29.940Z,101432.66
2019-04-04T17:36:09.983Z,101439.71
2019-04-04T17:37:50.356Z,101435.64
2019-04-04T17:39:34.754Z,101442.71
2019-04-04T17:41:14.024Z,101441.28
2019-04-04T17:42:55.510Z,101434.11
2019-04-04T17:44:34.310Z,101436.70
2019-04-04T17:46:11.491Z,101439.31
2019-04-04T17:47:48.984Z,101442.37
2019-04-04T17:49:34.058Z,101440.98
2019-04-04T17:51:11.730Z,101437.37
2019-04-04T17:52:49.304Z,101431.56
2019-04-04T17:54:30.591Z,101443.47
2019-04-04T17:56:09.876Z,101445.20
2019-04-04T17:57:47.820Z,101446.02
2019-04-04T17:59:30.257Z,101442.45
2019-04-04T18:01:09.274Z,101437.48
2019-04-04T18:02:47.702Z,101439.12
2019-04-04T18:04:26.621Z,101444.38
2019-04-04T18:06:04.538Z,101435.45
2019-04-04T18:07:44.341Z,101439.41
2019-04-04T18:09:31.802Z,101444.63
2019-04-04T18:11:24.948Z,101439.23
2019-04-04T18:13:03.178Z,101443.58
2019-04-04T18:14:43.665Z,101439.13
2019-04-04T18:16:23.299Z,101438.64
2019-04-04T18:18:04.385Z,101440.84
2019-04-04T18:19:45.490Z,101443.39
2019-04-04T18:21:24.054Z,101448.56
2019-04-04T18:23:01.488Z,101458.28
2019-04-04T18:24:40.091Z,101457.33
2019-04-04T18:26:18.304Z,101461.81
2019-04-04T18:27:57.411Z,101465.27
2019-04-04T18:29:36.986Z,101469.34
2019-04-04T18:31:15.301Z,101470.70
2019-04-04T18:32:53.544Z,101470.70
2019-04-04T18:34:30.871Z,101472.00
2019-04-04T18:36:08.296Z,101471.83
2019-04-04T18:37:47.082Z,101471.37
2019-04-04T18:39:26.631Z,101473.50
2019-04-04T18:41:07.903Z,101471.25
2019-04-04T18:42:53.143Z,101479.64
2019-04-04T18:44:26.416Z,101474.65
2019-04-04T18:46:04.983Z,101473.41
2019-04-04T18:47:47.106Z,101483.17
2019-04-04T18:49:27.421Z,101469.50
2019-04-04T18:51:07.300Z,101478.72
2019-04-04T18:52:45.991Z,101477.30
2019-04-04T18:54:24.227Z,101482.89
2019-04-04T18:56:03.765Z,101477.53
2019-04-04T18:57:43.569Z,101480.19
2019-04-04T18:59:20.693Z,101483.67
2019-04-04T19:01:01.104Z,101485.83
2019-04-04T19:02:39.655Z,101486.19
2019-04-04T19:04:28.983Z,101488.80
2019-04-04T19:06:08.848Z,101490.90
2019-04-04T19:07:50.901Z,101488.19
2019-04-04T19:09:28.659Z,101486.34
2019-04-04T19:11:07.077Z,101480.08
2019-04-04T19:12:47.308Z,101488.49
2019-04-04T19:14:27.268Z,101489.67
2019-04-04T19:16:07.772Z,101489.52
2019-04-04T19:17:47.339Z,101485.99
2019-04-04T19:19:29.131Z,101489.47
2019-04-04T19:21:07.151Z,101479.25
2019-04-04T19:22:47.158Z,101482.21
2019-04-04T19:24:37.388Z,101476.84
2019-04-04T19:26:14.415Z,101484.76
2019-04-04T19:27:52.504Z,101489.42
2019-04-04T19:29:34.329Z,101484.98
2019-04-04T19:31:14.604Z,101488.46
2019-04-04T19:32:59.509Z,101488.75
2019-04-04T19:34:43.727Z,101490.48
2019-04-04T19:36:25.051Z,101491.34
2019-04-04T19:38:03.108Z,101496.60
2019-04-04T19:39:42.674Z,101506.75
2019-04-04T19:41:24.269Z,101513.16
2019-04-04T19:43:17.425Z,101514.02
2019-04-04T19:44:53.904Z,101521.34
2019-04-04T19:46:40.075Z,101520.02
2019-04-04T19:48:27.675Z,101517.87
2019-04-04T19:50:13.030Z,101518.63
2019-04-04T19:51:57.246Z,101515.86
2019-04-04T19:53:35.828Z,101524.89
2019-04-04T19:55:19.251Z,101520.84
2019-04-04T19:57:25.588Z,101522.44
2019-04-04T19:59:03.404Z,101517.48
2019-04-04T20:00:43.208Z,101520.87
2019-04-04T20:02:23.936Z,101519.56
2019-04-04T20:04:01.918Z,101519.73
2019-04-04T20:05:40.157Z,101523.72
2019-04-04T20:07:20.336Z,101523.30
2019-04-04T20:09:01.237Z,101515.75
2019-04-04T20:10:42.350Z,101517.95
2019-04-04T20:12:23.060Z,101518.76
2019-04-04T20:14:01.555Z,101518.63
2019-04-04T20:15:41.564Z,101526.44
2019-04-04T20:17:21.586Z,101520.55
2019-04-04T20:19:01.380Z,101517.91
2019-04-04T20:20:42.011Z,101523.59
2019-04-04T20:22:21.719Z,101517.50
2019-04-04T20:24:01.507Z,101520.07
2019-04-04T20:25:41.045Z,101524.45
2019-04-04T20:27:21.671Z,101518.48
2019-04-04T20:29:02.219Z,101522.93
2019-04-04T20:30:42.855Z,101520.21
2019-04-04T20:32:24.644Z,101511.66
2019-04-04T20:34:06.437Z,101514.77
2019-04-04T20:35:46.807Z,101515.95
2019-04-04T20:37:26.326Z,101515.84
2019-04-04T20:39:06.900Z,101516.75
2019-04-04T20:40:50.296Z,101516.61
2019-04-04T20:42:30.010Z,101516.61
2019-04-04T20:44:10.460Z,101517.07
2019-04-04T20:45:49.976Z,101516.86
2019-04-04T20:47:30.116Z,101522.17
2019-04-04T20:49:12.259Z,101521.69
2019-04-04T20:50:51.532Z,101519.83
2019-04-04T20:52:31.758Z,101524.58
2019-04-04T20:54:12.393Z,101516.09
2019-04-04T20:55:54.602Z,101521.81
2019-04-04T20:57:32.901Z,101518.35
2019-04-04T20:59:14.359Z,101522.40
2019-04-04T21:00:55.093Z,101520.14
2019-04-04T21:02:36.957Z,101522.72
2019-04-04T21:04:18.911Z,101523.58
2019-04-04T21:06:03.487Z,101527.94
2019-04-04T21:07:47.905Z,101525.02
2019-04-04T21:09:31.269Z,101524.87
2019-04-04T21:11:08.958Z,101524.55
2019-04-04T21:12:49.446Z,101525.27
2019-04-04T21:14:30.656Z,101524.65
2019-04-04T21:16:14.369Z,101533.34
2019-04-04T21:17:53.769Z,101529.77
2019-04-04T21:19:34.062Z,101532.75
2019-04-04T21:21:12.464Z,101530.88
2019-04-04T21:22:53.460Z,101529.91
2019-04-04T21:24:40.681Z,101528.92
2019-04-04T21:26:24.756Z,101528.53
2019-04-04T21:28:06.688Z,101531.65
2019-04-04T21:29:47.419Z,101525.48
2019-04-04T21:31:32.055Z,101532.51
2019-04-04T21:33:12.399Z,101529.78
2019-04-04T21:34:57.889Z,101525.28
2019-04-04T21:36:39.389Z,101523.16
2019-04-04T21:38:20.049Z,101527.60
2019-04-04T21:40:02.438Z,101533.67
2019-04-04T21:41:44.942Z,101535.37
2019-04-04T21:43:26.995Z,101537.09
2019-04-04T21:45:07.743Z,101529.56
2019-04-04T21:46:50.404Z,101534.28
2019-04-04T21:48:35.314Z,101531.86
2019-04-04T21:50:20.422Z,101528.36
2019-04-04T21:52:03.954Z,101518.70
2019-04-04T21:53:46.406Z,101525.79
2019-04-04T21:55:26.960Z,101524.02
2019-04-04T21:57:08.147Z,101522.45
2019-04-04T21:58:51.705Z,101523.23
2019-04-04T22:00:45.707Z,101525.79
2019-04-04T22:02:30.010Z,101523.00
2019-04-04T22:04:12.451Z,101525.65
2019-04-04T22:05:52.074Z,101527.97
2019-04-04T22:07:35.178Z,101527.41
2019-04-04T22:09:21.025Z,101527.41
2019-04-04T22:11:02.054Z,101529.04
2019-04-04T22:12:43.918Z,101530.28
2019-04-04T22:14:24.851Z,101524.98
2019-04-04T22:16:06.128Z,101530.30
2019-04-04T22:17:49.143Z,101534.33
2019-04-04T22:19:30.302Z,101535.19
2019-04-04T22:21:14.171Z,101537.22
2019-04-04T22:22:56.450Z,101532.70
2019-04-04T22:24:39.278Z,101538.37
2019-04-04T22:26:20.680Z,101540.22
2019-04-04T22:28:06.410Z,101534.00
2019-04-04T22:29:46.344Z,101532.94
2019-04-04T22:31:27.752Z,101530.67
2019-04-04T22:33:11.490Z,101533.23
2019-04-04T22:34:54.158Z,101531.36
2019-04-04T22:36:36.729Z,101532.56
2019-04-04T22:38:19.308Z,101530.50
2019-04-04T22:40:02.844Z,101532.56
2019-04-04T22:41:44.653Z,101528.45
2019-04-04T22:43:28.918Z,101533.73
2019-04-04T22:45:13.295Z,101536.38
2019-04-04T22:46:57.831Z,101533.44
2019-04-04T22:48:38.309Z,101535.91
2019-04-04T22:50:20.352Z,101542.05
2019-04-04T22:52:03.390Z,101535.28
2019-04-04T22:53:44.927Z,101528.11
2019-04-04T22:55:29.489Z,101530.66
2019-04-04T22:57:12.520Z,101531.05
2019-04-04T22:58:54.002Z,101524.38
2019-04-04T23:00:39.070Z,101528.34
2019-04-04T23:02:18.733Z,101526.08
2019-04-04T23:04:01.018Z,101525.37
2019-04-04T23:05:44.412Z,101527.46
2019-04-04T23:07:25.696Z,101527.69
2019-04-04T23:09:08.401Z,101525.52
2019-04-04T23:10:50.989Z,101528.31
2019-04-04T23:12:32.803Z,101527.30
2019-04-04T23:14:15.628Z,101532.09
2019-04-04T23:15:58.318Z,101530.14
2019-04-04T23:17:39.685Z,101528.61
2019-04-04T23:19:20.667Z,101534.73
2019-04-04T23:21:02.087Z,101535.86
2019-04-04T23:22:52.559Z,101540.80
2019-04-04T23:24:28.565Z,101545.20
2019-04-04T23:26:09.555Z,101545.61
2019-04-04T23:27:50.298Z,101547.31
2019-04-04T23:29:33.062Z,101539.98
2019-04-04T23:31:15.506Z,101548.72
2019-04-04T23:33:02.054Z,101542.62
2019-04-04T23:34:44.861Z,101544.75
2019-04-04T23:36:34.321Z,101545.53
2019-04-04T23:38:10.481Z,101544.77
2019-04-04T23:39:56.533Z,101542.84
2019-04-04T23:41:38.071Z,101541.19
2019-04-04T23:43:16.150Z,101547.61
2019-04-04T23:46:55.657Z,101546.80
2019-04-04T23:48:38.151Z,101545.20
2019-04-04T23:50:22.123Z,101544.27
2019-04-04T23:52:02.890Z,101546.52
2019-04-04T23:53:43.239Z,101550.67
2019-04-04T23:55:37.642Z,101546.09
2019-04-04T23:57:18.987Z,101545.58
2019-04-04T23:58:58.560Z,101540.11
